Time;durP1;ratioP1;P1;durP2;ratioP2;P2;SDS_P1;SDS_P2;PMS_P1;PMS_P2;Temp;Humidity;BMP_temperature;BMP_pressure;BME280_temperature;BME280_humidity;BME280_pressure;Samples;Min_cycle;Max_cycle;Signal;HPM_P1;HPM_P2
2022/12/29 00:04:00;;;;;;;15.40;7.53;;;;;;;;;;8144584;29;20055;-93
2022/12/29 00:08:03;;;;;;;15.80;7.88;;;;;;;;;;8142239;29;20103;-93
2022/12/29 00:12:11;;;;;;;16.75;6.95;;;;;;;;;;8154823;23;20390;-94
2022/12/29 00:16:19;;;;;;;18.20;8.68;;;;;;;;;;8156156;29;20044;-94
2022/12/29 00:46:39;;;;;;;9.75;4.78;;;;;;;;;;8161644;29;20143;-93
2022/12/29 00:50:46;;;;;;;12.45;7.10;;;;;;;;;;8154275;29;20056;-94
2022/12/29 00:54:49;;;;;;;11.15;5.75;;;;;;;;;;8132155;29;20089;-94
2022/12/29 00:58:52;;;;;;;17.25;7.47;;;;;;;;;;8159341;29;20176;-93
2022/12/29 01:02:55;;;;;;;15.15;7.35;;;;;;;;;;8160264;29;20150;-94
2022/12/29 01:07:01;;;;;;;18.33;7.45;;;;;;;;;;8130170;29;20071;-94
2022/12/29 01:11:05;;;;;;;15.70;7.30;;;;;;;;;;8188070;23;20070;-94
2022/12/29 01:15:10;;;;;;;17.10;7.38;;;;;;;;;;8173525;29;20099;-93
2022/12/29 01:19:16;;;;;;;15.70;7.05;;;;;;;;;;8172677;29;20066;-94
2022/12/29 01:23:21;;;;;;;17.45;7.15;;;;;;;;;;8175651;29;20048;-93
2022/12/29 01:27:26;;;;;;;16.08;7.82;;;;;;;;;;8174615;29;20079;-94
2022/12/29 01:31:29;;;;;;;12.70;5.97;;;;;;;;;;8169637;29;20052;-94
2022/12/29 01:35:32;;;;;;;14.13;6.45;;;;;;;;;;8156213;29;20098;-92
2022/12/29 01:39:38;;;;;;;17.38;7.38;;;;;;;;;;8158420;29;20059;-92
2022/12/29 01:43:43;;;;;;;13.02;6.82;;;;;;;;;;8145301;29;20059;-93
2022/12/29 01:47:52;;;;;;;18.35;7.00;;;;;;;;;;8164228;29;20079;-94
2022/12/29 01:51:59;;;;;;;12.38;6.20;;;;;;;;;;8171380;29;20067;-92
2022/12/29 01:56:08;;;;;;;17.60;7.20;;;;;;;;;;8174336;29;20059;-93
2022/12/29 02:00:16;;;;;;;14.80;6.78;;;;;;;;;;8172842;29;20099;-92
2022/12/29 02:04:25;;;;;;;15.40;6.07;;;;;;;;;;8155066;29;20051;-94
2022/12/29 02:08:34;;;;;;;13.20;6.32;;;;;;;;;;8173288;29;20511;-94
2022/12/29 02:12:38;;;;;;;12.70;6.78;;;;;;;;;;8186807;29;20070;-92
2022/12/29 02:17:01;;;;;;;17.35;7.00;;;;;;;;;;8174969;29;20079;-94
2022/12/29 02:21:40;;;;;;;8.20;4.55;;;;;;;;;;8173559;29;20117;-94
2022/12/29 02:26:20;;;;;;;15.02;5.60;;;;;;;;;;8164553;29;20138;-93
2022/12/29 02:30:54;;;;;;;10.43;5.35;;;;;;;;;;8154152;29;20052;-93
2022/12/29 02:35:04;;;;;;;13.48;5.93;;;;;;;;;;8150949;29;20059;-93
2022/12/29 02:39:15;;;;;;;13.15;6.25;;;;;;;;;;8178495;29;20056;-93
2022/12/29 02:43:26;;;;;;;8.47;4.77;;;;;;;;;;8178395;29;20056;-93
2022/12/29 02:52:02;;;;;;;13.25;6.07;;;;;;;;;;8148262;29;20059;-93
2022/12/29 02:56:05;;;;;;;16.70;5.90;;;;;;;;;;8178233;29;20106;-94
2022/12/29 03:00:18;;;;;;;15.23;6.60;;;;;;;;;;8149978;29;20476;-92
2022/12/29 03:04:31;;;;;;;15.55;6.40;;;;;;;;;;8169033;29;20063;-92
2022/12/29 03:08:46;;;;;;;9.63;5.10;;;;;;;;;;8162961;29;20052;-93
2022/12/29 03:17:26;;;;;;;12.75;5.10;;;;;;;;;;8166583;29;20503;-94
2022/12/29 03:26:00;;;;;;;11.40;5.55;;;;;;;;;;8195259;29;20150;-93
2022/12/29 03:30:08;;;;;;;12.32;6.00;;;;;;;;;;8165249;29;20052;-95
2022/12/29 03:34:14;;;;;;;11.48;5.78;;;;;;;;;;8176631;29;20051;-94
2022/12/29 03:38:24;;;;;;;10.18;4.75;;;;;;;;;;8155212;29;20489;-95
2022/12/29 03:42:30;;;;;;;11.57;5.20;;;;;;;;;;8127519;29;20060;-94
2022/12/29 03:46:33;;;;;;;14.73;5.93;;;;;;;;;;8166842;29;20055;-93
2022/12/29 03:50:36;;;;;;;12.57;4.88;;;;;;;;;;8172970;29;20121;-93
2022/12/29 03:54:41;;;;;;;10.73;5.00;;;;;;;;;;8166093;29;20142;-93
2022/12/29 03:58:45;;;;;;;12.05;5.22;;;;;;;;;;8146993;29;20058;-93
2022/12/29 04:02:49;;;;;;;11.98;5.60;;;;;;;;;;8179393;29;20632;-93
2022/12/29 04:06:52;;;;;;;13.30;5.13;;;;;;;;;;8158732;29;20592;-94
2022/12/29 04:10:57;;;;;;;8.52;4.53;;;;;;;;;;8162213;29;20080;-92
2022/12/29 04:15:01;;;;;;;8.27;4.22;;;;;;;;;;8177167;29;20052;-94
2022/12/29 04:19:08;;;;;;;7.65;4.10;;;;;;;;;;8178848;29;20051;-93
2022/12/29 04:23:12;;;;;;;8.25;4.38;;;;;;;;;;8170910;28;20538;-93
2022/12/29 04:27:29;;;;;;;13.77;4.35;;;;;;;;;;8180313;29;20479;-92
2022/12/29 04:31:36;;;;;;;8.43;4.07;;;;;;;;;;8179130;29;20063;-94
2022/12/29 04:35:40;;;;;;;9.60;3.63;;;;;;;;;;8164889;29;20075;-93
2022/12/29 04:39:43;;;;;;;9.57;4.82;;;;;;;;;;8174579;29;20058;-94
2022/12/29 04:43:48;;;;;;;9.25;4.60;;;;;;;;;;8158902;29;20130;-93
2022/12/29 04:47:51;;;;;;;11.18;4.80;;;;;;;;;;8174718;29;20433;-94
2022/12/29 04:51:55;;;;;;;13.18;5.55;;;;;;;;;;8174938;29;20055;-93
2022/12/29 04:55:58;;;;;;;10.88;4.95;;;;;;;;;;8168559;29;20453;-94
2022/12/29 05:00:04;;;;;;;10.77;5.03;;;;;;;;;;8171259;29;20055;-94
2022/12/29 05:04:07;;;;;;;11.27;5.13;;;;;;;;;;8164452;29;20043;-94
2022/12/29 05:08:10;;;;;;;10.65;5.28;;;;;;;;;;8176046;29;20086;-92
2022/12/29 05:12:14;;;;;;;12.07;4.57;;;;;;;;;;8162980;29;20079;-91
2022/12/29 05:16:19;;;;;;;9.70;4.32;;;;;;;;;;8175222;29;20055;-93
2022/12/29 05:20:22;;;;;;;10.52;4.57;;;;;;;;;;8196186;29;20119;-92
2022/12/29 05:24:25;;;;;;;7.60;4.25;;;;;;;;;;8159766;29;20083;-94
2022/12/29 05:28:28;;;;;;;9.43;4.13;;;;;;;;;;8147483;29;20056;-93
2022/12/29 05:32:35;;;;;;;10.02;4.97;;;;;;;;;;8169016;29;20063;-93
2022/12/29 05:36:37;;;;;;;8.45;4.20;;;;;;;;;;8181265;29;20052;-92
2022/12/29 05:40:44;;;;;;;9.40;4.63;;;;;;;;;;8164570;29;20059;-95
2022/12/29 05:44:49;;;;;;;9.30;4.50;;;;;;;;;;8189776;29;20076;-92
2022/12/29 05:48:56;;;;;;;6.97;4.07;;;;;;;;;;8187937;29;20579;-93
2022/12/29 05:53:15;;;;;;;9.57;4.28;;;;;;;;;;8181338;29;20138;-93
2022/12/29 05:57:21;;;;;;;9.00;4.38;;;;;;;;;;8168776;29;20079;-92
2022/12/29 06:01:24;;;;;;;7.47;4.40;;;;;;;;;;8178633;29;20102;-93
2022/12/29 06:05:29;;;;;;;8.82;4.40;;;;;;;;;;8179372;29;20063;-94
2022/12/29 06:09:33;;;;;;;10.30;4.25;;;;;;;;;;8180649;29;20056;-93
2022/12/29 06:13:35;;;;;;;9.77;4.35;;;;;;;;;;8150740;29;20074;-93
2022/12/29 06:17:40;;;;;;;8.80;4.50;;;;;;;;;;8178687;29;20070;-95
2022/12/29 06:21:47;;;;;;;8.80;4.57;;;;;;;;;;8169643;29;20075;-95
2022/12/29 06:25:52;;;;;;;9.35;4.20;;;;;;;;;;8152006;29;20084;-95
2022/12/29 06:29:59;;;;;;;10.13;4.30;;;;;;;;;;8153520;29;20047;-93
2022/12/29 06:34:06;;;;;;;10.05;4.60;;;;;;;;;;8178181;29;20055;-94
2022/12/29 06:38:14;;;;;;;9.27;4.60;;;;;;;;;;8173615;29;20147;-93
2022/12/29 06:42:17;;;;;;;8.65;4.35;;;;;;;;;;8172110;29;20079;-94
2022/12/29 06:46:20;;;;;;;11.00;4.55;;;;;;;;;;8175370;29;20122;-94
2022/12/29 06:50:35;;;;;;;9.00;4.22;;;;;;;;;;8185147;29;20059;-94
2022/12/29 06:54:43;;;;;;;10.32;5.47;;;;;;;;;;8180474;29;20142;-93
2022/12/29 06:58:46;;;;;;;8.18;4.38;;;;;;;;;;8190242;29;20404;-92
2022/12/29 07:02:50;;;;;;;8.35;4.70;;;;;;;;;;8162695;29;20059;-92
2022/12/29 07:06:52;;;;;;;7.20;3.80;;;;;;;;;;8180789;29;20059;-90
2022/12/29 07:10:58;;;;;;;11.82;4.70;;;;;;;;;;8176053;29;20067;-93
2022/12/29 07:15:02;;;;;;;8.43;4.43;;;;;;;;;;8173066;29;20058;-92
2022/12/29 07:19:06;;;;;;;8.55;4.63;;;;;;;;;;8179896;29;20082;-91
2022/12/29 07:23:11;;;;;;;6.30;3.38;;;;;;;;;;8159950;29;20138;-91
2022/12/29 07:27:23;;;;;;;9.70;4.15;;;;;;;;;;8180619;29;20082;-95
2022/12/29 07:31:26;;;;;;;10.05;5.95;;;;;;;;;;8178373;29;20058;-93
2022/12/29 07:35:29;;;;;;;8.68;4.43;;;;;;;;;;8179217;29;20059;-93
2022/12/29 07:39:33;;;;;;;9.85;5.35;;;;;;;;;;8177622;29;20079;-94
2022/12/29 07:43:39;;;;;;;8.30;4.82;;;;;;;;;;8177374;29;20066;-92
2022/12/29 07:47:42;;;;;;;13.68;6.35;;;;;;;;;;8164695;29;20114;-93
2022/12/29 07:51:45;;;;;;;10.98;4.88;;;;;;;;;;8177959;29;20052;-93
2022/12/29 07:55:48;;;;;;;10.73;6.03;;;;;;;;;;8177281;29;20047;-93
2022/12/29 08:00:14;;;;;;;12.88;6.10;;;;;;;;;;8177642;29;20070;-93
2022/12/29 08:08:41;;;;;;;8.77;4.70;;;;;;;;;;8178636;29;20056;-92
2022/12/29 08:12:44;;;;;;;9.93;4.32;;;;;;;;;;8176591;29;20056;-93
2022/12/29 08:16:49;;;;;;;12.05;4.55;;;;;;;;;;8178128;29;20060;-91
2022/12/29 08:20:52;;;;;;;8.52;4.38;;;;;;;;;;8157722;29;20063;-93
2022/12/29 08:25:03;;;;;;;11.48;5.07;;;;;;;;;;8160641;29;20439;-92
2022/12/29 08:29:07;;;;;;;8.07;4.13;;;;;;;;;;8176952;29;20065;-93
2022/12/29 08:33:19;;;;;;;10.32;5.88;;;;;;;;;;8162494;29;20051;-94
2022/12/29 08:42:17;;;;;;;10.32;5.40;;;;;;;;;;8162582;29;20072;-92
2022/12/29 08:46:56;;;;;;;9.63;4.70;;;;;;;;;;8184447;23;20062;-94
2022/12/29 08:51:04;;;;;;;7.53;4.72;;;;;;;;;;8120251;29;20060;-94
2022/12/29 08:55:11;;;;;;;8.63;4.50;;;;;;;;;;8126472;29;20055;-93
2022/12/29 08:59:50;;;;;;;7.80;4.40;;;;;;;;;;8147993;29;20132;-95
2022/12/29 09:13:36;;;;;;;10.90;4.30;;;;;;;;;;8137140;23;20056;-94
2022/12/29 09:17:46;;;;;;;12.13;4.32;;;;;;;;;;8107058;29;20486;-93
2022/12/29 09:22:11;;;;;;;12.20;5.85;;;;;;;;;;8109464;29;20068;-91
2022/12/29 09:26:56;;;;;;;16.40;9.80;;;;;;;;;;8121764;29;20134;-93
2022/12/29 09:31:01;;;;;;;10.32;5.05;;;;;;;;;;8114989;29;20132;-92
2022/12/29 09:35:05;;;;;;;18.80;10.43;;;;;;;;;;8103934;29;20048;-91
2022/12/29 09:39:15;;;;;;;21.05;11.77;;;;;;;;;;8135271;29;20052;-94
2022/12/29 09:43:58;;;;;;;12.38;6.78;;;;;;;;;;8133182;29;20064;-94
2022/12/29 09:48:01;;;;;;;;;;;;;;;;;;8104501;29;20511;-95
2022/12/29 09:52:13;;;;;;;7.05;4.00;;;;;;;;;;8101329;29;19924;-93
2022/12/29 09:56:24;;;;;;;10.80;5.03;;;;;;;;;;8110156;29;20049;-93
2022/12/29 10:00:37;;;;;;;13.70;5.68;;;;;;;;;;8108496;29;20125;-93
2022/12/29 10:04:42;;;;;;;8.13;4.38;;;;;;;;;;8108697;29;20113;-93
2022/12/29 10:08:51;;;;;;;10.85;6.00;;;;;;;;;;8110576;29;20121;-94
2022/12/29 10:13:10;;;;;;;6.75;3.75;;;;;;;;;;8123502;29;20077;-93
2022/12/29 10:17:27;;;;;;;10.07;4.65;;;;;;;;;;8134712;29;20059;-94
2022/12/29 10:21:44;;;;;;;8.48;3.88;;;;;;;;;;8142348;29;20541;-92
2022/12/29 10:25:47;;;;;;;10.20;4.78;;;;;;;;;;8143402;29;20060;-93
2022/12/29 10:29:55;;;;;;;30.30;14.07;;;;;;;;;;8129946;29;20067;-93
2022/12/29 10:34:04;;;;;;;14.85;7.38;;;;;;;;;;8134047;29;20078;-93
2022/12/29 10:38:16;;;;;;;17.48;8.98;;;;;;;;;;8142059;29;20048;-92
2022/12/29 10:42:27;;;;;;;8.80;5.22;;;;;;;;;;8134371;29;20075;-94
2022/12/29 10:46:33;;;;;;;9.25;4.57;;;;;;;;;;8135110;29;20060;-92
2022/12/29 10:50:42;;;;;;;10.15;5.00;;;;;;;;;;8133894;29;20052;-92
2022/12/29 10:54:50;;;;;;;10.18;5.35;;;;;;;;;;8134869;29;20160;-94
2022/12/29 10:59:00;;;;;;;8.77;4.97;;;;;;;;;;8130976;29;20410;-93
2022/12/29 11:03:42;;;;;;;12.23;5.13;;;;;;;;;;8135517;29;20131;-93
2022/12/29 11:07:49;;;;;;;9.35;4.65;;;;;;;;;;8114184;29;20079;-94
2022/12/29 11:11:52;;;;;;;10.93;5.32;;;;;;;;;;8131727;29;20084;-94
2022/12/29 11:15:55;;;;;;;9.95;4.78;;;;;;;;;;8134051;29;20063;-93
2022/12/29 11:19:59;;;;;;;10.85;5.57;;;;;;;;;;8129574;29;20574;-93
2022/12/29 11:24:05;;;;;;;9.18;4.38;;;;;;;;;;8129933;29;20876;-92
2022/12/29 11:28:17;;;;;;;8.95;4.10;;;;;;;;;;8135187;29;20060;-91
2022/12/29 11:32:25;;;;;;;9.45;4.75;;;;;;;;;;8132147;29;20457;-93
2022/12/29 11:36:29;;;;;;;12.13;5.43;;;;;;;;;;8116957;29;20075;-92
2022/12/29 11:40:41;;;;;;;46.65;17.98;;;;;;;;;;8135108;29;20515;-92
2022/12/29 11:44:46;;;;;;;21.40;8.55;;;;;;;;;;8144562;29;20059;-93
2022/12/29 11:48:49;;;;;;;9.43;5.10;;;;;;;;;;8125356;29;20052;-96
2022/12/29 11:53:00;;;;;;;11.50;5.25;;;;;;;;;;8139355;29;20093;-94
2022/12/29 11:57:16;;;;;;;8.75;4.93;;;;;;;;;;8139475;29;20056;-94
2022/12/29 12:01:24;;;;;;;9.98;4.75;;;;;;;;;;8153032;29;20056;-93
2022/12/29 12:05:37;;;;;;;10.30;5.30;;;;;;;;;;8145064;29;20079;-94
2022/12/29 12:09:51;;;;;;;9.77;4.63;;;;;;;;;;8148041;29;20056;-94
2022/12/29 12:14:06;;;;;;;9.82;5.57;;;;;;;;;;8129587;29;20064;-93
2022/12/29 12:18:16;;;;;;;10.43;4.90;;;;;;;;;;8136392;29;20063;-94
2022/12/29 12:22:28;;;;;;;9.85;4.88;;;;;;;;;;8132856;29;20060;-96
2022/12/29 12:26:35;;;;;;;9.60;4.50;;;;;;;;;;8144701;29;20048;-94
2022/12/29 12:30:46;;;;;;;6.75;3.83;;;;;;;;;;8142782;29;20067;-95
2022/12/29 12:34:51;;;;;;;9.02;3.95;;;;;;;;;;8139649;29;20079;-93
2022/12/29 12:39:06;;;;;;;10.68;4.40;;;;;;;;;;8150068;29;20059;-94
2022/12/29 12:43:31;;;;;;;7.35;4.70;;;;;;;;;;8150507;29;20072;-92
2022/12/29 12:47:54;;;;;;;11.68;5.45;;;;;;;;;;8132820;29;20079;-92
2022/12/29 12:52:13;;;;;;;8.10;5.55;;;;;;;;;;8122333;29;20064;-95
2022/12/29 12:56:58;;;;;;;7.75;3.67;;;;;;;;;;8140221;29;20071;-94
2022/12/29 13:01:35;;;;;;;8.48;4.70;;;;;;;;;;8131799;29;20107;-92
2022/12/29 13:06:28;;;;;;;10.55;4.80;;;;;;;;;;8147203;29;20089;-93
2022/12/29 13:10:57;;;;;;;8.32;4.10;;;;;;;;;;8139924;29;20063;-95
2022/12/29 13:19:37;;;;;;;8.53;4.40;;;;;;;;;;8114404;29;20242;-93
2022/12/29 13:23:52;;;;;;;8.43;4.22;;;;;;;;;;8144452;29;20068;-94
2022/12/29 13:28:09;;;;;;;9.95;5.25;;;;;;;;;;8082263;29;20120;-94
2022/12/29 13:36:57;;;;;;;8.30;3.42;;;;;;;;;;8137441;29;20053;-92
2022/12/29 13:41:10;;;;;;;8.95;4.47;;;;;;;;;;8131336;29;20056;-92
2022/12/29 13:45:19;;;;;;;8.02;4.38;;;;;;;;;;8126574;29;20476;-93
2022/12/29 13:49:24;;;;;;;9.45;4.20;;;;;;;;;;8128877;29;20060;-93
2022/12/29 13:53:56;;;;;;;8.55;4.30;;;;;;;;;;8133748;29;20056;-94
2022/12/29 13:58:29;;;;;;;6.75;3.80;;;;;;;;;;8125944;29;20058;-93
2022/12/29 14:03:00;;;;;;;8.63;4.60;;;;;;;;;;8117718;29;20056;-93
2022/12/29 14:07:16;;;;;;;9.70;5.00;;;;;;;;;;8131218;29;20052;-95
2022/12/29 14:11:44;;;;;;;11.27;4.40;;;;;;;;;;8132218;29;20107;-91
2022/12/29 14:16:42;;;;;;;9.20;5.13;;;;;;;;;;8144549;29;20103;-94
2022/12/29 14:26:08;;;;;;;9.88;4.63;;;;;;;;;;8154110;29;20079;-93
2022/12/29 14:30:59;;;;;;;9.20;4.80;;;;;;;;;;8195284;23;20082;-92
2022/12/29 14:35:39;;;;;;;12.95;6.10;;;;;;;;;;8174506;29;20086;-93
2022/12/29 14:40:29;;;;;;;10.27;4.78;;;;;;;;;;8149460;29;20060;-92
2022/12/29 14:45:17;;;;;;;10.25;4.50;;;;;;;;;;8143848;29;20133;-92
2022/12/29 14:49:28;;;;;;;12.02;5.60;;;;;;;;;;8169897;29;20177;-92
2022/12/29 14:53:52;;;;;;;22.77;9.55;;;;;;;;;;8173576;29;20067;-91
2022/12/29 14:58:32;;;;;;;19.73;8.45;;;;;;;;;;8184687;29;20054;-92
2022/12/29 15:07:46;;;;;;;33.40;14.85;;;;;;;;;;8182742;29;20052;-93
2022/12/29 15:12:05;;;;;;;62.22;25.50;;;;;;;;;;8181794;29;20054;-92
2022/12/29 15:21:05;;;;;;;31.88;14.18;;;;;;;;;;8193087;23;20062;-91
2022/12/29 15:25:52;;;;;;;29.63;14.45;;;;;;;;;;8163202;29;20064;-92
2022/12/29 15:30:20;;;;;;;20.88;10.65;;;;;;;;;;8176655;29;20052;-92
2022/12/29 15:35:14;;;;;;;26.40;13.63;;;;;;;;;;8201497;23;20067;-92
2022/12/29 15:39:45;;;;;;;27.55;12.95;;;;;;;;;;8126784;29;20071;-91
2022/12/29 15:44:00;;;;;;;62.65;27.98;;;;;;;;;;8131133;29;20796;-92
2022/12/29 15:48:26;;;;;;;;;;;;;;;;;;8180297;29;20067;-91
2022/12/29 15:52:47;;;;;;;18.65;7.55;;;;;;;;;;8132488;29;20375;-91
2022/12/29 15:57:32;;;;;;;20.60;11.63;;;;;;;;;;8179600;29;20078;-93
2022/12/29 16:20:28;;;;;;;23.98;11.65;;;;;;;;;;8132916;29;20062;-91
2022/12/29 16:24:48;;;;;;;24.23;12.25;;;;;;;;;;8150866;29;20060;-90
2022/12/29 16:29:17;;;;;;;20.50;12.15;;;;;;;;;;8202445;23;20067;-92
2022/12/29 16:33:49;;;;;;;18.75;9.32;;;;;;;;;;8183392;29;20047;-92
2022/12/29 16:43:26;;;;;;;18.38;9.20;;;;;;;;;;8149286;29;20063;-92
2022/12/29 16:47:31;;;;;;;24.52;11.73;;;;;;;;;;8165556;29;20125;-92
2022/12/29 17:00:38;;;;;;;22.90;11.43;;;;;;;;;;8169576;23;20143;-94
2022/12/29 17:04:48;;;;;;;26.55;11.88;;;;;;;;;;8147165;29;20120;-92
2022/12/29 17:09:19;;;;;;;36.20;23.40;;;;;;;;;;8147132;29;20111;-95
2022/12/29 17:13:23;;;;;;;59.37;38.00;;;;;;;;;;8147464;29;20064;-93
2022/12/29 17:17:55;;;;;;;22.48;12.02;;;;;;;;;;8152179;29;20363;-92
2022/12/29 17:22:16;;;;;;;30.75;16.10;;;;;;;;;;8138579;29;20107;-93
2022/12/29 17:26:23;;;;;;;19.43;10.30;;;;;;;;;;8135154;29;20068;-91
2022/12/29 17:30:38;;;;;;;16.20;9.60;;;;;;;;;;8151613;29;20064;-92
2022/12/29 17:34:46;;;;;;;27.98;14.15;;;;;;;;;;8144853;29;20081;-91
2022/12/29 17:38:52;;;;;;;19.17;10.52;;;;;;;;;;8141436;29;20443;-91
2022/12/29 17:43:02;;;;;;;18.25;10.00;;;;;;;;;;8139747;29;20056;-91
2022/12/29 17:47:14;;;;;;;52.30;22.10;;;;;;;;;;8143922;29;20059;-93
2022/12/29 17:51:23;;;;;;;41.25;21.13;;;;;;;;;;8150324;29;20127;-91
2022/12/29 17:55:41;;;;;;;37.47;17.02;;;;;;;;;;8152536;29;20060;-94
2022/12/29 18:00:23;;;;;;;27.08;13.60;;;;;;;;;;8156300;29;20087;-96
2022/12/29 18:04:26;;;;;;;26.23;13.20;;;;;;;;;;7999047;29;20644;-91
2022/12/29 18:08:39;;;;;;;76.70;39.95;;;;;;;;;;7999188;29;20087;-93
2022/12/29 18:12:54;;;;;;;20.90;12.45;;;;;;;;;;7998163;29;20085;-93
2022/12/29 18:17:03;;;;;;;45.00;22.48;;;;;;;;;;8002911;29;20062;-93
2022/12/29 18:21:15;;;;;;;38.60;17.17;;;;;;;;;;7991889;29;20066;-93
2022/12/29 18:25:29;;;;;;;32.42;16.30;;;;;;;;;;7993153;29;20567;-93
2022/12/29 18:29:39;;;;;;;48.78;21.40;;;;;;;;;;8005196;29;20153;-92
2022/12/29 18:33:45;;;;;;;28.33;16.15;;;;;;;;;;8002034;29;20111;-94
2022/12/29 18:37:57;;;;;;;21.50;11.43;;;;;;;;;;7985855;29;20062;-94
2022/12/29 18:42:08;;;;;;;52.03;32.15;;;;;;;;;;8137375;29;20052;-92
2022/12/29 18:46:18;;;;;;;21.55;12.15;;;;;;;;;;8136727;29;20103;-91
2022/12/29 18:50:26;;;;;;;26.05;14.70;;;;;;;;;;8160502;29;20063;-92
2022/12/29 18:54:32;;;;;;;20.58;12.02;;;;;;;;;;8157014;29;20048;-93
2022/12/29 18:58:42;;;;;;;21.95;12.85;;;;;;;;;;8149901;29;20064;-93
2022/12/29 19:02:47;;;;;;;19.77;9.75;;;;;;;;;;8153806;29;20047;-92
2022/12/29 19:06:51;;;;;;;21.15;11.30;;;;;;;;;;8158521;29;20120;-91
2022/12/29 19:11:06;;;;;;;21.45;9.80;;;;;;;;;;8163294;29;20088;-93
2022/12/29 19:15:21;;;;;;;25.77;11.77;;;;;;;;;;8128224;29;20118;-92
2022/12/29 19:19:32;;;;;;;21.30;11.23;;;;;;;;;;8131577;29;20088;-92
2022/12/29 19:23:40;;;;;;;26.70;16.48;;;;;;;;;;8160016;29;20070;-92
2022/12/29 19:27:47;;;;;;;18.02;8.68;;;;;;;;;;8154155;29;20056;-92
2022/12/29 19:31:54;;;;;;;18.10;9.43;;;;;;;;;;8156019;29;20401;-92
2022/12/29 19:36:02;;;;;;;21.67;9.43;;;;;;;;;;8158920;29;20067;-93
2022/12/29 19:44:44;;;;;;;29.65;12.95;;;;;;;;;;8135941;29;20063;-92
2022/12/29 19:48:49;;;;;;;20.08;9.95;;;;;;;;;;8132551;29;20428;-91
2022/12/29 19:52:54;;;;;;;13.82;7.55;;;;;;;;;;8153451;29;20071;-92
2022/12/29 19:57:02;;;;;;;19.45;8.75;;;;;;;;;;8146956;29;20214;-92
2022/12/29 20:01:11;;;;;;;33.13;11.63;;;;;;;;;;8109625;29;20147;-92
2022/12/29 20:05:23;;;;;;;21.48;11.00;;;;;;;;;;8115202;29;20060;-91
2022/12/29 20:09:27;;;;;;;19.77;8.45;;;;;;;;;;8120415;29;20049;-92
2022/12/29 20:13:35;;;;;;;17.95;8.43;;;;;;;;;;8113273;29;20071;-90
2022/12/29 20:17:39;;;;;;;15.98;7.60;;;;;;;;;;8101110;29;20056;-92
2022/12/29 20:21:48;;;;;;;54.08;20.88;;;;;;;;;;8112455;29;20057;-91
2022/12/29 20:25:59;;;;;;;68.15;21.17;;;;;;;;;;8110684;29;20059;-92
2022/12/29 20:30:19;;;;;;;29.38;12.88;;;;;;;;;;8111211;29;20143;-91
2022/12/29 20:34:29;;;;;;;54.45;21.55;;;;;;;;;;8112710;29;20056;-93
2022/12/29 20:38:35;;;;;;;45.42;17.15;;;;;;;;;;8112489;29;20056;-91
2022/12/29 20:42:45;;;;;;;49.25;21.23;;;;;;;;;;8112681;29;20060;-91
2022/12/29 20:46:51;;;;;;;34.60;14.67;;;;;;;;;;8105019;29;20064;-92
2022/12/29 20:51:11;;;;;;;33.35;14.15;;;;;;;;;;8113349;29;20517;-92
2022/12/29 20:55:16;;;;;;;44.15;17.92;;;;;;;;;;8111749;29;20060;-91
2022/12/29 20:59:20;;;;;;;30.80;12.13;;;;;;;;;;8128260;29;20068;-90
2022/12/29 21:03:25;;;;;;;29.10;12.48;;;;;;;;;;8142651;29;20085;-92
2022/12/29 21:07:28;;;;;;;22.05;10.32;;;;;;;;;;8142611;29;20115;-90
2022/12/29 21:11:32;;;;;;;24.30;9.88;;;;;;;;;;8125551;29;20048;-91
2022/12/29 21:15:36;;;;;;;26.48;11.90;;;;;;;;;;8142240;29;20067;-91
2022/12/29 21:19:41;;;;;;;31.73;13.63;;;;;;;;;;8142399;29;20552;-91
2022/12/29 21:23:44;;;;;;;33.40;13.00;;;;;;;;;;8141692;29;20056;-92
2022/12/29 21:27:47;;;;;;;53.50;24.00;;;;;;;;;;8141343;29;20486;-91
2022/12/29 21:31:51;;;;;;;27.70;13.18;;;;;;;;;;8142704;29;20088;-91
2022/12/29 21:35:55;;;;;;;21.52;12.82;;;;;;;;;;8149399;29;20142;-91
2022/12/29 21:39:58;;;;;;;26.00;10.27;;;;;;;;;;8149365;29;20060;-91
2022/12/29 21:48:23;;;;;;;24.45;11.73;;;;;;;;;;8149226;29;20056;-91
2022/12/29 21:52:28;;;;;;;23.17;10.18;;;;;;;;;;8134954;29;20084;-93
2022/12/29 21:56:31;;;;;;;19.73;9.43;;;;;;;;;;8155693;29;20048;-92
2022/12/29 22:14:26;;;;;;;;;;;;;;;;;;8146979;29;20489;-93
2022/12/29 22:18:31;;;;;;;19.65;9.43;;;;;;;;;;8146791;29;19930;-91
2022/12/29 22:22:34;;;;;;;20.10;9.80;;;;;;;;;;8146628;29;20064;-92
2022/12/29 22:26:42;;;;;;;19.38;9.35;;;;;;;;;;8134027;29;20095;-92
2022/12/29 22:30:44;;;;;;;16.02;8.07;;;;;;;;;;8146217;29;20112;-92
2022/12/29 22:34:48;;;;;;;20.42;9.38;;;;;;;;;;8145581;29;20048;-91
2022/12/29 22:38:51;;;;;;;18.48;8.57;;;;;;;;;;8146025;29;20085;-91
2022/12/29 22:42:56;;;;;;;18.25;9.68;;;;;;;;;;8133497;29;20080;-92
2022/12/29 22:46:59;;;;;;;15.63;6.88;;;;;;;;;;8144773;29;20420;-91
2022/12/29 22:51:03;;;;;;;23.90;9.98;;;;;;;;;;8132984;29;20147;-91
2022/12/29 22:55:07;;;;;;;25.63;11.70;;;;;;;;;;8145094;29;20129;-92
2022/12/29 22:59:14;;;;;;;25.13;10.75;;;;;;;;;;8145805;29;20068;-91
2022/12/29 23:03:17;;;;;;;31.50;13.68;;;;;;;;;;8146401;29;20056;-90
2022/12/29 23:07:24;;;;;;;49.85;18.00;;;;;;;;;;8146563;29;20413;-91
2022/12/29 23:11:29;;;;;;;29.05;12.82;;;;;;;;;;8148332;29;20067;-92
2022/12/29 23:15:34;;;;;;;40.72;16.20;;;;;;;;;;8145986;29;20561;-90
2022/12/29 23:19:36;;;;;;;27.58;13.13;;;;;;;;;;8144635;29;20052;-91
2022/12/29 23:23:56;;;;;;;28.80;13.63;;;;;;;;;;8127252;29;20056;-91
2022/12/29 23:27:58;;;;;;;35.63;14.48;;;;;;;;;;8143170;29;20123;-91
2022/12/29 23:32:03;;;;;;;19.15;10.02;;;;;;;;;;8128521;29;20052;-92
2022/12/29 23:36:07;;;;;;;22.88;11.05;;;;;;;;;;8144077;29;20048;-92
2022/12/29 23:40:12;;;;;;;30.95;14.45;;;;;;;;;;8144517;29;20063;-91
2022/12/29 23:44:15;;;;;;;30.25;14.75;;;;;;;;;;8156243;29;20094;-91
2022/12/29 23:48:19;;;;;;;29.63;12.65;;;;;;;;;;8143657;29;20099;-91
2022/12/29 23:52:25;;;;;;;23.58;11.30;;;;;;;;;;8143694;29;20066;-91
2022/12/29 23:56:28;;;;;;;24.75;10.93;;;;;;;;;;8167337;29;20487;-89
